Time;durP1;ratioP1;P1;durP2;ratioP2;P2;SDS_P1;SDS_P2;PMS_P1;PMS_P2;Temp;Humidity;BMP_temperature;BMP_pressure;BME280_temperature;BME280_humidity;BME280_pressure;Samples;Min_cycle;Max_cycle;Signal;HPM_P1;HPM_P2
2023/10/24 00:04:31;;;;;;;6.82;2.90;;;12.30;99.90;;;;;;5076484;28;20036;-75
2023/10/24 00:06:57;;;;;;;7.30;3.38;;;12.30;99.90;;;;;;5076597;28;20032;-75
2023/10/24 00:09:22;;;;;;;9.00;3.17;;;12.30;99.90;;;;;;5075846;28;20016;-75
2023/10/24 00:11:48;;;;;;;7.85;2.92;;;12.30;99.90;;;;;;5076508;28;20032;-75
2023/10/24 00:14:13;;;;;;;4.88;2.50;;;12.30;99.90;;;;;;5076673;28;20378;-75
2023/10/24 00:16:39;;;;;;;5.53;3.10;;;12.30;99.90;;;;;;5076452;28;20031;-75
2023/10/24 00:19:04;;;;;;;7.18;2.95;;;12.30;99.90;;;;;;5076050;28;20035;-75
2023/10/24 00:21:30;;;;;;;5.13;2.75;;;12.30;99.90;;;;;;5075806;28;20044;-75
2023/10/24 00:23:55;;;;;;;7.47;2.75;;;12.30;99.90;;;;;;5076508;28;20046;-75
2023/10/24 00:26:21;;;;;;;5.65;3.00;;;12.30;99.90;;;;;;5076074;28;20020;-75
2023/10/24 00:28:46;;;;;;;8.07;2.42;;;12.30;99.90;;;;;;5076410;28;20028;-75
2023/10/24 00:31:12;;;;;;;9.57;3.08;;;12.30;99.90;;;;;;5076411;28;20119;-75
2023/10/24 00:33:37;;;;;;;6.80;2.95;;;12.20;99.90;;;;;;5075960;28;20037;-75
2023/10/24 00:36:03;;;;;;;9.35;3.10;;;12.20;99.90;;;;;;5076221;28;20127;-75
2023/10/24 00:38:29;;;;;;;4.60;2.70;;;12.20;99.90;;;;;;5075919;28;20481;-75
2023/10/24 00:40:54;;;;;;;6.18;2.70;;;12.20;99.90;;;;;;5075429;28;20132;-74
2023/10/24 00:43:20;;;;;;;7.57;2.95;;;12.10;99.90;;;;;;5075278;28;20474;-75
2023/10/24 00:45:45;;;;;;;4.85;2.85;;;12.10;99.90;;;;;;5076081;28;20040;-75
2023/10/24 00:48:11;;;;;;;7.28;2.88;;;12.10;99.90;;;;;;5076142;28;20028;-75
2023/10/24 00:50:37;;;;;;;5.07;2.63;;;12.10;99.90;;;;;;5075831;28;20077;-75
2023/10/24 00:53:03;;;;;;;8.23;2.90;;;12.20;99.90;;;;;;5075697;28;20027;-75
2023/10/24 00:55:30;;;;;;;6.85;2.95;;;12.10;99.90;;;;;;5075586;28;20062;-75
2023/10/24 00:57:56;;;;;;;9.25;3.13;;;12.20;99.90;;;;;;5075277;28;20374;-75
2023/10/24 01:00:24;;;;;;;5.60;3.00;;;12.20;99.90;;;;;;5075440;28;20032;-75
2023/10/24 01:02:50;;;;;;;6.70;3.22;;;12.20;99.90;;;;;;5074923;28;20437;-75
2023/10/24 01:05:16;;;;;;;7.03;2.95;;;12.20;99.90;;;;;;5075662;28;20046;-75
2023/10/24 01:07:44;;;;;;;6.82;2.92;;;12.20;99.90;;;;;;5075207;28;20095;-75
2023/10/24 01:10:11;;;;;;;6.20;2.83;;;12.20;99.90;;;;;;5075422;28;20021;-75
2023/10/24 01:12:37;;;;;;;8.45;2.72;;;12.20;99.90;;;;;;5075067;28;20024;-74
2023/10/24 01:15:04;;;;;;;7.57;3.05;;;12.20;99.90;;;;;;5075580;28;20032;-75
2023/10/24 01:17:29;;;;;;;6.95;2.88;;;12.20;99.90;;;;;;5075164;28;20024;-75
2023/10/24 01:19:55;;;;;;;8.13;3.13;;;12.10;99.90;;;;;;5075402;28;20516;-75
2023/10/24 01:22:20;;;;;;;8.90;3.15;;;12.10;99.90;;;;;;5074773;28;20035;-75
2023/10/24 01:24:47;;;;;;;8.65;2.60;;;12.10;99.90;;;;;;5075386;28;20033;-75
2023/10/24 01:27:14;;;;;;;9.02;3.08;;;12.00;99.90;;;;;;5074793;28;20413;-75
2023/10/24 01:29:39;;;;;;;6.07;3.47;;;12.00;99.90;;;;;;5074592;28;20031;-75
2023/10/24 01:32:05;;;;;;;5.00;3.00;;;12.10;99.90;;;;;;5074745;28;20024;-75
2023/10/24 01:34:31;;;;;;;6.80;3.78;;;12.10;99.90;;;;;;5075097;28;20162;-75
2023/10/24 01:36:56;;;;;;;8.48;3.15;;;12.10;99.90;;;;;;5075049;28;20169;-75
2023/10/24 01:39:22;;;;;;;6.80;3.40;;;12.20;99.90;;;;;;5074987;28;20033;-75
2023/10/24 01:41:47;;;;;;;7.25;3.10;;;12.20;99.90;;;;;;5073875;28;20040;-74
2023/10/24 01:44:13;;;;;;;9.30;3.53;;;12.30;99.90;;;;;;5074661;28;20033;-74
2023/10/24 01:46:38;;;;;;;8.18;3.80;;;12.40;99.90;;;;;;5073734;28;20028;-74
2023/10/24 01:49:04;;;;;;;7.35;2.70;;;12.40;99.90;;;;;;5074812;28;20028;-74
2023/10/24 01:51:30;;;;;;;6.93;3.03;;;12.50;99.90;;;;;;5074169;28;20028;-75
2023/10/24 01:53:55;;;;;;;9.00;2.92;;;12.50;99.90;;;;;;5074452;28;20355;-75
2023/10/24 01:56:21;;;;;;;9.80;3.13;;;12.60;99.90;;;;;;5074372;28;20085;-74
2023/10/24 01:58:46;;;;;;;6.68;2.67;;;12.60;99.90;;;;;;5074607;28;20371;-75
2023/10/24 02:01:12;;;;;;;4.38;2.67;;;12.70;99.90;;;;;;5074547;28;20027;-75
2023/10/24 02:03:37;;;;;;;3.40;2.30;;;12.80;99.90;;;;;;5074224;28;20063;-75
2023/10/24 02:06:03;;;;;;;7.07;3.10;;;12.80;99.90;;;;;;5074629;28;20025;-77
2023/10/24 02:08:29;;;;;;;7.50;2.90;;;12.90;99.90;;;;;;5073920;28;20025;-75
2023/10/24 02:10:54;;;;;;;5.72;2.92;;;12.80;99.90;;;;;;5073897;28;20430;-75
2023/10/24 02:13:19;;;;;;;8.23;3.10;;;12.80;99.90;;;;;;5074164;28;20415;-75
2023/10/24 02:15:45;;;;;;;7.30;2.80;;;12.90;99.90;;;;;;5074423;28;20039;-75
2023/10/24 02:18:10;;;;;;;6.53;3.17;;;12.90;99.90;;;;;;5074442;28;20066;-75
2023/10/24 02:20:37;;;;;;;5.65;2.72;;;12.80;99.90;;;;;;5074065;28;20449;-75
2023/10/24 02:23:03;;;;;;;6.50;2.80;;;12.90;99.90;;;;;;5074105;28;20032;-75
2023/10/24 02:25:28;;;;;;;7.28;2.67;;;12.90;99.90;;;;;;5074349;28;20374;-75
2023/10/24 02:27:55;;;;;;;4.30;2.58;;;13.00;99.90;;;;;;5074091;28;20020;-75
2023/10/24 02:30:21;;;;;;;4.70;2.20;;;13.10;99.90;;;;;;5074258;28;20063;-75
2023/10/24 02:32:47;;;;;;;5.30;2.53;;;13.20;99.90;;;;;;5074283;28;20068;-75
2023/10/24 02:35:14;;;;;;;5.88;2.58;;;13.20;99.90;;;;;;5073934;28;20032;-75
2023/10/24 02:37:39;;;;;;;6.57;2.35;;;13.30;99.90;;;;;;5074161;28;20516;-75
2023/10/24 02:40:07;;;;;;;7.55;2.50;;;13.40;99.90;;;;;;5073874;28;20024;-75
2023/10/24 02:42:33;;;;;;;4.70;2.38;;;13.40;99.90;;;;;;5073574;28;20078;-75
2023/10/24 02:44:59;;;;;;;5.53;2.40;;;13.40;99.90;;;;;;5074094;28;20035;-75
2023/10/24 02:47:25;;;;;;;3.85;2.50;;;13.50;99.90;;;;;;5073691;28;20024;-75
2023/10/24 02:49:51;;;;;;;6.93;2.20;;;13.50;99.90;;;;;;5073760;28;20119;-76
2023/10/24 02:52:16;;;;;;;9.07;2.53;;;13.50;99.90;;;;;;5073610;28;20089;-75
2023/10/24 02:54:42;;;;;;;3.47;2.28;;;13.60;99.90;;;;;;5073775;28;20417;-74
2023/10/24 02:57:07;;;;;;;4.50;2.22;;;13.70;99.90;;;;;;5073097;28;20505;-75
2023/10/24 02:59:33;;;;;;;6.15;2.00;;;13.70;99.90;;;;;;5073994;28;20035;-75
2023/10/24 03:01:58;;;;;;;4.43;2.25;;;13.70;99.90;;;;;;5073700;28;20021;-75
2023/10/24 03:04:24;;;;;;;3.95;2.13;;;13.60;99.90;;;;;;5073900;28;20028;-75
2023/10/24 03:06:49;;;;;;;3.50;2.00;;;13.60;99.90;;;;;;5073971;28;20020;-75
2023/10/24 03:09:15;;;;;;;5.60;2.42;;;13.60;99.90;;;;;;5073496;28;20052;-75
2023/10/24 03:11:40;;;;;;;5.53;2.20;;;13.50;99.90;;;;;;5073874;28;20069;-75
2023/10/24 03:14:06;;;;;;;8.30;2.35;;;13.50;99.90;;;;;;5073211;28;20111;-75
2023/10/24 03:16:33;;;;;;;4.40;2.20;;;13.50;99.90;;;;;;5073507;28;20409;-75
2023/10/24 03:18:59;;;;;;;6.30;2.20;;;13.50;99.90;;;;;;5073520;28;20115;-75
2023/10/24 03:21:25;;;;;;;3.72;2.20;;;13.50;99.90;;;;;;5072894;28;20031;-75
2023/10/24 03:23:51;;;;;;;7.57;2.25;;;13.50;99.90;;;;;;5075278;28;20028;-75
2023/10/24 03:26:18;;;;;;;8.88;2.20;;;13.60;99.90;;;;;;5077626;28;20028;-75
2023/10/24 03:28:45;;;;;;;2.17;2.00;;;13.50;99.90;;;;;;5077531;28;20026;-75
2023/10/24 03:31:10;;;;;;;5.03;2.20;;;13.50;99.90;;;;;;5077562;28;20506;-75
2023/10/24 03:33:36;;;;;;;4.07;2.65;;;13.50;99.90;;;;;;5076939;28;20036;-76
2023/10/24 03:36:02;;;;;;;8.73;2.53;;;13.50;99.90;;;;;;5077176;28;20081;-75
2023/10/24 03:38:27;;;;;;;4.85;2.50;;;13.50;99.90;;;;;;5076808;28;20033;-74
2023/10/24 03:40:54;;;;;;;3.85;2.35;;;13.50;99.90;;;;;;5076492;28;20079;-75
2023/10/24 03:43:20;;;;;;;7.20;2.50;;;13.50;99.90;;;;;;5076774;28;20020;-75
2023/10/24 03:45:46;;;;;;;3.97;2.00;;;13.50;99.90;;;;;;5076564;28;20017;-75
2023/10/24 03:48:12;;;;;;;6.45;2.22;;;13.50;99.90;;;;;;5076709;28;20107;-75
2023/10/24 03:50:39;;;;;;;4.47;2.08;;;13.50;99.90;;;;;;5076905;28;20029;-75
2023/10/24 03:53:06;;;;;;;4.68;2.03;;;13.50;99.90;;;;;;5076766;28;20028;-75
2023/10/24 03:55:32;;;;;;;2.83;2.30;;;13.40;99.90;;;;;;5076525;28;20063;-75
2023/10/24 03:57:57;;;;;;;5.65;2.20;;;13.40;99.90;;;;;;5076990;28;20024;-75
2023/10/24 04:00:23;;;;;;;7.45;2.47;;;13.40;99.90;;;;;;5076703;28;20474;-75
2023/10/24 04:02:51;;;;;;;5.68;2.17;;;13.50;99.90;;;;;;5076100;28;20033;-75
2023/10/24 04:05:17;;;;;;;6.88;2.40;;;13.60;99.90;;;;;;5076891;28;20079;-75
2023/10/24 04:07:43;;;;;;;5.80;2.42;;;13.50;99.90;;;;;;5076743;28;20052;-75
2023/10/24 04:10:08;;;;;;;6.70;2.35;;;13.50;99.90;;;;;;5076711;28;20170;-75
2023/10/24 04:12:34;;;;;;;4.07;2.33;;;13.50;99.90;;;;;;5076242;28;20218;-75
2023/10/24 04:15:00;;;;;;;5.65;2.75;;;13.50;99.90;;;;;;5076681;28;20036;-75
2023/10/24 04:17:25;;;;;;;5.68;2.38;;;13.40;99.90;;;;;;5076064;28;20024;-75
2023/10/24 04:19:51;;;;;;;6.35;2.45;;;13.50;99.90;;;;;;5075984;28;20029;-75
2023/10/24 04:22:16;;;;;;;5.38;2.58;;;13.40;99.90;;;;;;5076088;28;20055;-75
2023/10/24 04:24:42;;;;;;;5.95;2.40;;;13.40;99.90;;;;;;5075864;28;20024;-75
2023/10/24 04:27:09;;;;;;;5.18;2.80;;;13.40;99.90;;;;;;5076098;28;20024;-75
2023/10/24 04:29:34;;;;;;;3.80;2.70;;;13.40;99.90;;;;;;5075744;28;20462;-75
2023/10/24 04:32:00;;;;;;;8.50;3.08;;;13.30;99.90;;;;;;5075732;28;20030;-75
2023/10/24 04:34:25;;;;;;;6.00;2.72;;;13.20;99.90;;;;;;5075703;28;20070;-75
2023/10/24 04:36:53;;;;;;;9.75;3.22;;;13.20;99.90;;;;;;5076000;28;20028;-74
2023/10/24 04:39:19;;;;;;;6.55;3.10;;;13.20;99.90;;;;;;5075626;28;20427;-75
2023/10/24 04:41:47;;;;;;;5.75;2.90;;;13.10;99.90;;;;;;5075210;28;20091;-75
2023/10/24 04:44:13;;;;;;;6.70;3.38;;;13.10;99.90;;;;;;5076181;28;20032;-75
2023/10/24 04:46:39;;;;;;;6.00;2.88;;;13.00;99.90;;;;;;5075839;28;20032;-75
2023/10/24 04:49:04;;;;;;;3.80;2.95;;;13.00;99.90;;;;;;5075735;28;20032;-75
2023/10/24 04:51:30;;;;;;;8.07;3.45;;;12.90;99.90;;;;;;5076014;28;20725;-75
2023/10/24 04:53:55;;;;;;;6.10;3.00;;;13.00;99.90;;;;;;5075995;28;20377;-75
2023/10/24 04:56:21;;;;;;;4.65;2.88;;;12.90;99.90;;;;;;5075499;28;20165;-75
2023/10/24 04:58:47;;;;;;;3.35;2.80;;;12.90;99.90;;;;;;5075245;28;20074;-75
2023/10/24 05:01:12;;;;;;;4.57;3.17;;;12.80;99.90;;;;;;5075095;28;20383;-75
2023/10/24 05:03:38;;;;;;;8.40;3.20;;;12.80;99.90;;;;;;5075761;28;20027;-75
2023/10/24 05:06:04;;;;;;;4.88;2.85;;;12.70;99.90;;;;;;5075048;28;20021;-75
2023/10/24 05:08:30;;;;;;;6.07;2.60;;;12.70;99.90;;;;;;5075356;28;20082;-74
2023/10/24 05:10:55;;;;;;;6.95;2.70;;;12.70;99.90;;;;;;5075090;28;20025;-75
2023/10/24 05:13:21;;;;;;;4.78;2.83;;;12.70;99.90;;;;;;5074450;28;20032;-74
2023/10/24 05:15:47;;;;;;;5.22;2.83;;;12.60;99.90;;;;;;5075281;28;20033;-75
2023/10/24 05:18:13;;;;;;;5.28;2.75;;;12.60;99.90;;;;;;5075176;28;20415;-75
2023/10/24 05:20:39;;;;;;;8.35;3.45;;;12.60;99.90;;;;;;5074883;28;20378;-75
2023/10/24 05:23:05;;;;;;;5.30;3.42;;;12.60;99.90;;;;;;5074977;28;20077;-75
2023/10/24 05:25:31;;;;;;;6.40;3.00;;;12.60;99.90;;;;;;5074377;28;20025;-74
2023/10/24 05:27:57;;;;;;;6.35;3.00;;;12.60;99.90;;;;;;5074681;28;20378;-74
2023/10/24 05:30:23;;;;;;;8.50;3.33;;;12.60;99.90;;;;;;5074948;28;20035;-75
2023/10/24 05:32:48;;;;;;;5.22;2.78;;;12.60;99.90;;;;;;5074677;28;20067;-74
2023/10/24 05:35:14;;;;;;;5.38;2.60;;;12.50;99.90;;;;;;5074946;28;20474;-74
2023/10/24 05:37:41;;;;;;;5.95;2.70;;;12.50;99.90;;;;;;5075037;28;20032;-74
2023/10/24 05:40:07;;;;;;;5.93;2.85;;;12.50;99.90;;;;;;5074421;28;20112;-74
2023/10/24 05:42:32;;;;;;;6.90;3.70;;;12.50;99.90;;;;;;5074494;28;20440;-75
2023/10/24 05:44:58;;;;;;;6.05;2.97;;;12.50;99.90;;;;;;5074898;28;20028;-75
2023/10/24 05:47:23;;;;;;;4.95;3.08;;;12.50;99.90;;;;;;5073907;28;20378;-74
2023/10/24 05:49:50;;;;;;;4.07;2.97;;;12.40;99.90;;;;;;5074608;28;20564;-74
2023/10/24 05:52:16;;;;;;;6.00;3.60;;;12.50;99.90;;;;;;5074429;28;20025;-74
2023/10/24 05:54:41;;;;;;;5.10;3.10;;;12.40;99.90;;;;;;5074793;28;20520;-74
2023/10/24 05:57:07;;;;;;;5.28;3.10;;;12.40;99.90;;;;;;5074635;28;20056;-74
2023/10/24 05:59:33;;;;;;;6.35;3.50;;;12.40;99.90;;;;;;5074208;28;20529;-74
2023/10/24 06:01:59;;;;;;;5.95;4.00;;;12.40;99.90;;;;;;5074136;28;20032;-74
2023/10/24 06:04:25;;;;;;;8.55;4.03;;;12.40;99.90;;;;;;5077223;28;20112;-73
2023/10/24 06:06:50;;;;;;;5.93;3.67;;;12.40;99.90;;;;;;5083029;28;20148;-75
2023/10/24 06:09:16;;;;;;;5.70;3.45;;;12.40;99.90;;;;;;5080763;28;20028;-74
2023/10/24 06:11:41;;;;;;;7.43;3.97;;;12.40;99.90;;;;;;5082532;28;20028;-74
2023/10/24 06:14:08;;;;;;;6.30;3.30;;;12.40;99.90;;;;;;5089064;28;20036;-74
2023/10/24 06:16:33;;;;;;;4.28;3.42;;;12.40;99.90;;;;;;5075472;28;20029;-74
2023/10/24 06:18:59;;;;;;;7.15;4.10;;;12.40;99.90;;;;;;5078747;28;20115;-74
2023/10/24 06:21:26;;;;;;;5.60;3.75;;;12.40;99.90;;;;;;5092474;28;20031;-74
2023/10/24 06:23:53;;;;;;;7.40;3.65;;;12.40;99.90;;;;;;5084595;28;20036;-74
2023/10/24 06:26:19;;;;;;;8.55;4.65;;;12.40;99.90;;;;;;5079538;28;20032;-73
2023/10/24 06:28:45;;;;;;;8.93;4.53;;;12.40;99.90;;;;;;5077458;28;20019;-75
2023/10/24 06:31:12;;;;;;;6.68;4.05;;;12.40;99.90;;;;;;5075268;28;20051;-75
2023/10/24 06:33:40;;;;;;;6.72;4.72;;;12.40;99.90;;;;;;5081953;28;20519;-74
2023/10/24 06:36:06;;;;;;;8.35;5.00;;;12.40;99.90;;;;;;5077243;28;20035;-75
2023/10/24 06:38:32;;;;;;;14.68;5.68;;;12.40;99.90;;;;;;5073205;28;20029;-75
2023/10/24 06:40:58;;;;;;;9.02;5.63;;;12.50;99.90;;;;;;5052924;28;20059;-75
2023/10/24 06:43:25;;;;;;;10.85;5.18;;;12.50;99.90;;;;;;5071013;28;20481;-74
2023/10/24 06:45:51;;;;;;;9.65;5.05;;;12.50;99.90;;;;;;5071620;28;20025;-76
2023/10/24 06:48:18;;;;;;;6.72;4.63;;;12.40;99.90;;;;;;5067398;28;20040;-74
2023/10/24 06:50:43;;;;;;;7.60;4.80;;;12.50;99.90;;;;;;5054399;28;20032;-75
2023/10/24 06:53:10;;;;;;;9.68;5.00;;;12.50;99.90;;;;;;5067684;28;20025;-76
2023/10/24 06:55:36;;;;;;;11.25;4.30;;;12.50;99.90;;;;;;5058141;28;20040;-76
2023/10/24 06:58:03;;;;;;;7.35;3.97;;;12.60;99.90;;;;;;5054920;28;20391;-75
2023/10/24 07:00:29;;;;;;;8.55;3.65;;;12.60;99.90;;;;;;5074237;28;20375;-75
2023/10/24 07:02:54;;;;;;;9.27;4.07;;;12.60;99.90;;;;;;5075742;28;20043;-75
2023/10/24 07:05:20;;;;;;;5.47;3.25;;;12.60;99.90;;;;;;5075736;28;20036;-75
2023/10/24 07:07:46;;;;;;;9.20;3.70;;;12.60;99.90;;;;;;5071668;28;20086;-76
2023/10/24 07:10:11;;;;;;;5.32;2.92;;;12.60;99.90;;;;;;5057662;28;20035;-76
2023/10/24 07:12:37;;;;;;;6.72;2.60;;;12.70;99.90;;;;;;5057300;28;20039;-75
2023/10/24 07:15:04;;;;;;;6.65;3.22;;;12.80;99.90;;;;;;5058400;28;20035;-75
2023/10/24 07:17:30;;;;;;;5.32;2.50;;;12.80;99.90;;;;;;5075574;28;20028;-75
2023/10/24 07:19:58;;;;;;;3.05;1.98;;;12.80;99.90;;;;;;5067322;28;20093;-76
2023/10/24 07:22:24;;;;;;;7.25;2.70;;;12.90;99.90;;;;;;5077483;28;20024;-76
2023/10/24 07:24:50;;;;;;;4.22;2.28;;;12.90;99.90;;;;;;5077422;28;20111;-76
2023/10/24 07:27:15;;;;;;;3.35;2.30;;;12.90;99.90;;;;;;5078150;28;20025;-72
2023/10/24 07:29:41;;;;;;;2.80;2.30;;;13.00;99.90;;;;;;5058226;28;20029;-73
2023/10/24 07:32:07;;;;;;;6.85;2.45;;;13.00;99.90;;;;;;5073547;28;20028;-76
2023/10/24 07:34:33;;;;;;;4.35;2.22;;;13.00;99.90;;;;;;5059163;28;20033;-73
2023/10/24 07:36:59;;;;;;;4.05;2.10;;;13.00;99.90;;;;;;5057736;28;20546;-73
2023/10/24 07:39:24;;;;;;;2.05;1.77;;;13.00;99.90;;;;;;5057175;28;20056;-74
2023/10/24 07:41:50;;;;;;;7.70;2.30;;;13.00;99.90;;;;;;5070110;28;20132;-75
2023/10/24 07:44:15;;;;;;;3.75;2.13;;;13.00;99.90;;;;;;5064758;28;20021;-74
2023/10/24 07:46:41;;;;;;;3.35;1.83;;;13.00;99.90;;;;;;5069800;28;20044;-74
2023/10/24 07:49:06;;;;;;;2.08;1.80;;;13.00;99.90;;;;;;5074809;28;20131;-76
2023/10/24 07:51:32;;;;;;;4.32;1.88;;;13.10;99.90;;;;;;5057775;28;20039;-76
2023/10/24 07:53:58;;;;;;;3.97;2.47;;;13.10;99.90;;;;;;5059482;28;20416;-77
2023/10/24 07:56:25;;;;;;;2.95;2.30;;;13.10;99.90;;;;;;5059069;28;20043;-71
2023/10/24 07:58:50;;;;;;;3.30;2.08;;;13.10;99.90;;;;;;5061872;28;20482;-76
2023/10/24 08:01:18;;;;;;;4.07;2.10;;;13.10;99.90;;;;;;5064771;28;20028;-74
2023/10/24 08:03:44;;;;;;;8.90;2.35;;;13.10;99.90;;;;;;5057508;28;20040;-75
2023/10/24 08:06:10;;;;;;;2.95;2.10;;;13.10;99.90;;;;;;5065745;28;20040;-75
2023/10/24 08:08:35;;;;;;;6.28;2.20;;;13.10;99.90;;;;;;5048071;28;20029;-75
2023/10/24 08:11:02;;;;;;;4.28;2.20;;;13.20;99.90;;;;;;5046204;28;20383;-75
2023/10/24 08:13:28;;;;;;;5.63;2.13;;;13.10;99.90;;;;;;5060990;28;20387;-75
2023/10/24 08:15:54;;;;;;;4.65;2.30;;;13.20;99.90;;;;;;5047908;28;20017;-72
2023/10/24 08:18:19;;;;;;;3.90;2.08;;;13.20;99.90;;;;;;5044847;28;20108;-72
2023/10/24 08:20:45;;;;;;;5.13;2.08;;;13.20;99.90;;;;;;5052501;28;20106;-73
2023/10/24 08:23:11;;;;;;;2.63;2.00;;;13.20;99.90;;;;;;5045130;28;20082;-72
2023/10/24 08:25:36;;;;;;;4.07;2.70;;;13.30;99.90;;;;;;5054580;28;20029;-73
2023/10/24 08:28:03;;;;;;;3.90;2.13;;;13.30;99.90;;;;;;5049149;28;20085;-72
2023/10/24 08:30:31;;;;;;;4.40;2.10;;;13.40;99.90;;;;;;5048553;28;20029;-72
2023/10/24 08:32:57;;;;;;;3.08;1.90;;;13.40;99.90;;;;;;5049910;28;20078;-73
2023/10/24 08:35:23;;;;;;;4.40;2.03;;;13.40;99.90;;;;;;5046222;28;20041;-71
2023/10/24 08:37:48;;;;;;;8.77;2.60;;;13.40;99.90;;;;;;5045724;28;20037;-71
2023/10/24 08:40:14;;;;;;;3.17;2.20;;;13.40;99.90;;;;;;5048528;28;20040;-73
2023/10/24 08:42:41;;;;;;;3.00;2.25;;;13.30;99.90;;;;;;5044423;28;20033;-70
2023/10/24 08:45:08;;;;;;;5.70;2.90;;;13.30;99.90;;;;;;5045560;28;20399;-72
2023/10/24 08:47:34;;;;;;;6.38;3.95;;;13.30;99.90;;;;;;5039268;28;21436;-74
2023/10/24 08:50:01;;;;;;;4.55;2.40;;;13.30;99.90;;;;;;5042120;28;20067;-73
2023/10/24 08:52:29;;;;;;;3.28;2.00;;;13.40;99.90;;;;;;5053084;28;20031;-74
2023/10/24 08:54:57;;;;;;;3.30;2.25;;;13.40;99.90;;;;;;5057000;28;20123;-70
2023/10/24 08:57:27;;;;;;;3.33;2.17;;;13.40;99.90;;;;;;5051433;28;20029;-73
2023/10/24 08:59:56;;;;;;;2.42;2.20;;;13.40;99.90;;;;;;5046927;28;20128;-72
2023/10/24 09:02:22;;;;;;;4.22;2.20;;;13.40;99.90;;;;;;5042346;28;20057;-73
2023/10/24 09:04:50;;;;;;;2.95;2.03;;;13.40;99.90;;;;;;5047495;28;20441;-73
2023/10/24 09:07:16;;;;;;;3.45;1.80;;;13.40;99.90;;;;;;5054264;28;20029;-74
2023/10/24 09:09:41;;;;;;;4.25;2.05;;;13.50;99.90;;;;;;5047844;28;20029;-71
2023/10/24 09:12:09;;;;;;;4.85;2.40;;;13.50;99.90;;;;;;5048756;28;20037;-73
2023/10/24 09:14:35;;;;;;;4.00;2.05;;;13.50;99.90;;;;;;5049871;28;20394;-72
2023/10/24 09:17:03;;;;;;;2.45;1.80;;;13.60;99.90;;;;;;5053963;28;20032;-71
2023/10/24 09:19:29;;;;;;;3.70;1.92;;;13.60;99.90;;;;;;5048989;28;20036;-72
2023/10/24 09:21:56;;;;;;;3.35;1.90;;;13.70;99.90;;;;;;5051332;28;20029;-74
2023/10/24 09:24:23;;;;;;;3.10;1.80;;;13.70;99.90;;;;;;5051234;28;20041;-72
2023/10/24 09:26:51;;;;;;;3.17;1.85;;;13.70;99.40;;;;;;5045598;28;20509;-73
2023/10/24 09:29:18;;;;;;;3.20;1.70;;;13.80;99.90;;;;;;5043996;28;20128;-75
2023/10/24 09:31:48;;;;;;;2.65;2.05;;;13.80;93.40;;;;;;5044745;28;20068;-74
2023/10/24 09:34:14;;;;;;;3.38;2.22;;;13.90;99.90;;;;;;5053064;28;20037;-72
2023/10/24 09:36:40;;;;;;;4.13;1.90;;;13.90;97.90;;;;;;5048695;28;20037;-73
2023/10/24 09:39:06;;;;;;;2.72;1.75;;;13.90;93.80;;;;;;5056701;28;20047;-74
2023/10/24 09:41:31;;;;;;;3.00;1.73;;;13.90;74.90;;;;;;5041601;28;20518;-73
2023/10/24 09:44:01;;;;;;;4.60;1.60;;;13.90;53.30;;;;;;5042605;28;20032;-71
2023/10/24 09:46:28;;;;;;;5.05;2.38;;;14.00;71.30;;;;;;5061946;28;20027;-73
2023/10/24 09:48:56;;;;;;;2.55;1.50;;;14.00;56.90;;;;;;5063399;28;20024;-73
2023/10/24 09:51:22;;;;;;;2.97;1.48;;;14.00;44.90;;;;;;5055230;28;20040;-72
2023/10/24 09:53:50;;;;;;;4.18;1.60;;;14.10;50.50;;;;;;5054051;28;20029;-73
2023/10/24 09:56:16;;;;;;;2.75;2.00;;;14.00;26.60;;;;;;5042627;28;20049;-76
2023/10/24 09:58:43;;;;;;;3.15;1.30;;;14.00;19.60;;;;;;5041976;28;20033;-72
2023/10/24 10:01:09;;;;;;;1.88;1.23;;;14.00;25.10;;;;;;5050906;28;20036;-73
2023/10/24 10:03:36;;;;;;;2.17;1.50;;;13.90;13.90;;;;;;5055247;28;20475;-74
2023/10/24 10:06:05;;;;;;;2.40;1.13;;;14.00;38.10;;;;;;5063387;28;20457;-74
2023/10/24 10:08:37;;;;;;;2.83;1.23;;;14.00;36.80;;;;;;5052462;28;20040;-73
2023/10/24 10:11:05;;;;;;;2.38;1.40;;;13.90;25.10;;;;;;5052027;28;20478;-73
2023/10/24 10:13:36;;;;;;;2.55;1.90;;;13.90;29.00;;;;;;5046079;28;20544;-72
2023/10/24 10:19:49;;;;;;;4.10;1.55;;;14.00;32.20;;;;;;5126662;27;20342;-70
2023/10/24 10:22:43;;;;;;;4.13;2.08;;;14.00;19.10;;;;;;5095174;28;20084;-71
2023/10/24 10:25:39;;;;;;;3.53;2.00;;;14.10;31.50;;;;;;5104666;28;20027;-71
2023/10/24 10:28:45;;;;;;;2.33;1.55;;;14.20;29.20;;;;;;5110626;28;20031;-69
2023/10/24 10:31:33;;;;;;;2.08;1.63;;;14.20;28.20;;;;;;5104987;28;20035;-74
2023/10/24 10:33:59;;;;;;;3.22;1.70;;;14.30;14.70;;;;;;5110705;28;20027;-73
2023/10/24 10:36:25;;;;;;;2.47;1.33;;;14.40;11.40;;;;;;5111254;28;20557;-70
2023/10/24 10:38:51;;;;;;;3.92;1.70;;;14.50;1.00;;;;;;5104710;28;20088;-72
2023/10/24 10:41:29;;;;;;;7.28;1.75;;;14.60;1.00;;;;;;5107030;28;20024;-73
2023/10/24 10:43:59;;;;;;;2.63;1.58;;;14.90;1.00;;;;;;5102683;28;20504;-73
2023/10/24 10:46:27;;;;;;;1.70;1.58;;;15.10;1.00;;;;;;5106012;28;20477;-73
2023/10/24 10:49:04;;;;;;;2.28;1.30;;;15.30;1.00;;;;;;5106619;28;20119;-73
2023/10/24 10:51:32;;;;;;;4.35;1.70;;;15.30;1.00;;;;;;5108802;28;20020;-73
2023/10/24 10:57:04;;;;;;;2.50;1.70;;;15.20;1.00;;;;;;5093248;27;20440;-73
2023/10/24 10:59:49;;;;;;;1.52;1.40;;;15.50;1.00;;;;;;5092649;28;20032;-73
2023/10/24 11:02:46;;;;;;;3.08;1.73;;;15.40;1.00;;;;;;5086857;28;20386;-73
2023/10/24 11:08:32;;;;;;;3.85;1.50;;;15.30;1.00;;;;;;5096203;27;20905;-73
2023/10/24 11:11:00;;;;;;;5.43;1.77;;;15.20;1.00;;;;;;5096504;28;20126;-72
2023/10/24 11:13:36;;;;;;;4.18;2.00;;;15.00;1.00;;;;;;5087214;28;20025;-73
2023/10/24 11:16:03;;;;;;;2.92;1.98;;;14.80;1.00;;;;;;5074374;28;20016;-72
2023/10/24 11:18:30;;;;;;;2.75;1.80;;;14.80;1.00;;;;;;5070545;28;20393;-70
2023/10/24 11:20:56;;;;;;;3.10;1.67;;;14.80;1.00;;;;;;5078277;28;20032;-71
2023/10/24 11:23:21;;;;;;;1.95;1.60;;;14.80;1.00;;;;;;5080749;28;20074;-72
2023/10/24 11:25:47;;;;;;;3.05;2.08;;;15.10;1.00;;;;;;5083669;28;20037;-71
2023/10/24 11:28:13;;;;;;;3.92;1.80;;;15.20;1.00;;;;;;5084677;28;20021;-75
2023/10/24 11:30:38;;;;;;;1.77;1.60;;;15.30;1.00;;;;;;5083738;28;20394;-74
2023/10/24 11:33:04;;;;;;;1.75;1.60;;;15.40;99.90;;;;;;5080063;28;20529;-73
2023/10/24 11:35:29;;;;;;;2.78;1.95;;;15.80;99.90;;;;;;5080370;28;20378;-73
2023/10/24 11:37:56;;;;;;;2.63;1.50;;;16.00;99.90;;;;;;5074399;28;20421;-74
2023/10/24 11:40:21;;;;;;;4.30;2.08;;;16.30;41.00;;;;;;5086779;28;20040;-75
2023/10/24 11:42:47;;;;;;;2.03;1.60;;;16.70;1.00;;;;;;5074353;28;20020;-75
2023/10/24 11:45:12;;;;;;;5.18;1.90;;;16.80;1.00;;;;;;5083372;28;20034;-75
2023/10/24 11:47:38;;;;;;;2.47;2.00;;;16.60;99.90;;;;;;5079798;28;20028;-73
2023/10/24 11:50:04;;;;;;;2.95;2.00;;;16.30;1.00;;;;;;5088488;28;20031;-74
2023/10/24 11:52:29;;;;;;;5.10;1.90;;;16.20;34.20;;;;;;5078269;28;20036;-71
2023/10/24 11:54:55;;;;;;;5.30;1.88;;;16.00;1.00;;;;;;5076242;28;20032;-73
2023/10/24 11:57:22;;;;;;;3.22;1.80;;;15.90;99.90;;;;;;5099488;28;20069;-73
2023/10/24 11:59:49;;;;;;;2.38;1.85;;;16.30;99.90;;;;;;5092416;28;20035;-73
2023/10/24 12:02:15;;;;;;;1.95;1.75;;;16.50;99.90;;;;;;5076425;28;20110;-74
2023/10/24 12:04:41;;;;;;;2.10;1.90;;;16.30;1.00;;;;;;5072384;28;20516;-76
2023/10/24 12:07:08;;;;;;;2.15;1.58;;;16.20;1.00;;;;;;5080383;28;20037;-74
2023/10/24 12:09:35;;;;;;;2.70;1.73;;;16.00;27.50;;;;;;5085404;28;20032;-74
2023/10/24 12:12:03;;;;;;;3.47;1.90;;;16.00;99.90;;;;;;5086066;28;20527;-74
2023/10/24 12:14:28;;;;;;;4.03;1.90;;;16.00;99.90;;;;;;5071546;28;20032;-73
2023/10/24 12:16:54;;;;;;;3.08;1.92;;;15.80;99.90;;;;;;5082258;28;20036;-73
2023/10/24 12:19:20;;;;;;;2.33;1.88;;;15.90;99.90;;;;;;5070240;28;20028;-74
2023/10/24 12:21:45;;;;;;;3.33;1.80;;;15.80;99.90;;;;;;5069869;28;20025;-76
2023/10/24 12:24:12;;;;;;;7.15;2.10;;;16.00;99.90;;;;;;5075794;28;20052;-74
2023/10/24 12:26:39;;;;;;;3.45;1.95;;;15.90;99.90;;;;;;5073248;28;20053;-76
2023/10/24 12:29:09;;;;;;;2.33;1.80;;;15.90;99.90;;;;;;5062793;28;20139;-74
2023/10/24 12:31:35;;;;;;;2.70;1.90;;;15.70;99.90;;;;;;5060550;28;20032;-76
2023/10/24 12:34:01;;;;;;;3.50;2.20;;;15.70;99.90;;;;;;5069310;28;20021;-74
2023/10/24 12:36:27;;;;;;;3.78;2.60;;;15.90;99.90;;;;;;5055386;28;20439;-72
2023/10/24 12:38:52;;;;;;;4.28;1.98;;;15.70;99.90;;;;;;5065763;28;20037;-72
2023/10/24 12:41:19;;;;;;;3.55;1.90;;;15.70;99.90;;;;;;5072842;28;20044;-73
2023/10/24 12:43:44;;;;;;;4.63;2.15;;;15.60;99.90;;;;;;5057115;28;20040;-72
2023/10/24 12:46:10;;;;;;;3.63;2.22;;;15.50;99.90;;;;;;5070053;28;20041;-73
2023/10/24 12:48:36;;;;;;;4.13;2.45;;;15.40;99.90;;;;;;5064664;28;20050;-74
2023/10/24 12:51:01;;;;;;;4.63;2.30;;;15.50;99.90;;;;;;5060505;28;20399;-73
2023/10/24 12:53:27;;;;;;;3.83;2.22;;;15.40;99.90;;;;;;5071019;28;20237;-73
2023/10/24 12:55:52;;;;;;;2.33;2.03;;;15.40;99.90;;;;;;5061119;28;20036;-72
2023/10/24 12:58:18;;;;;;;4.90;2.50;;;15.30;99.90;;;;;;5064659;28;20032;-73